createdAt,value
2017-06-17T00:00:25.810Z,1011.99
2017-06-17T00:01:06.324Z,1012
2017-06-17T00:01:46.860Z,1012.01
2017-06-17T00:02:27.394Z,1012.01
2017-06-17T00:03:07.851Z,1012.03
2017-06-17T00:03:48.364Z,1012.03
2017-06-17T00:04:28.839Z,1011.98
2017-06-17T00:05:09.317Z,1012.02
2017-06-17T00:05:49.860Z,1012
2017-06-17T00:06:30.347Z,1012.01
2017-06-17T00:07:10.796Z,1012.03
2017-06-17T00:07:51.361Z,1011.99
2017-06-17T00:08:31.794Z,1012.01
2017-06-17T00:09:12.305Z,1011.99
2017-06-17T00:09:52.815Z,1012.01
2017-06-17T00:10:33.341Z,1012.08
2017-06-17T00:11:13.861Z,1012.04
2017-06-17T00:11:54.398Z,1012.06
2017-06-17T00:12:34.837Z,1012.08
2017-06-17T00:13:15.340Z,1012.08
2017-06-17T00:13:55.883Z,1012.14
2017-06-17T00:14:36.345Z,1012.07
2017-06-17T00:15:16.896Z,1012.07
2017-06-17T00:15:57.402Z,1012.08
2017-06-17T00:16:37.887Z,1012.09
2017-06-17T00:17:18.383Z,1012.08
2017-06-17T00:17:58.874Z,1012.08
2017-06-17T00:18:39.351Z,1012.01
2017-06-17T00:19:19.887Z,1012.05
2017-06-17T00:20:00.385Z,1012.01
2017-06-17T00:20:40.885Z,1012.04
2017-06-17T00:21:21.352Z,1012.03
2017-06-17T00:22:01.937Z,1012.07
2017-06-17T00:22:42.349Z,1012.07
2017-06-17T00:23:22.840Z,1012.08
2017-06-17T00:24:03.340Z,1012.07
2017-06-17T00:24:43.887Z,1012.14
2017-06-17T00:25:24.361Z,1012.07
2017-06-17T00:26:04.947Z,1012.11
2017-06-17T00:26:45.435Z,1012.12
2017-06-17T00:27:25.975Z,1012.08
2017-06-17T00:28:06.547Z,1012.15
2017-06-17T00:28:47.047Z,1012.13
2017-06-17T00:29:27.541Z,1012.17
2017-06-17T00:30:08.032Z,1012.21
2017-06-17T00:30:48.558Z,1012.16
2017-06-17T00:31:29.026Z,1012.2
2017-06-17T00:32:09.544Z,1012.17
2017-06-17T00:32:50.040Z,1012.17
2017-06-17T00:33:30.611Z,1012.2
2017-06-17T00:34:11.038Z,1012.13
2017-06-17T00:34:51.527Z,1012.21
2017-06-17T00:35:32.018Z,1012.19
2017-06-17T00:36:12.481Z,1012.21
2017-06-17T00:36:53.016Z,1012.18
2017-06-17T00:37:33.479Z,1012.19
2017-06-17T00:38:14.006Z,1012.19
2017-06-17T00:38:54.509Z,1012.18
2017-06-17T00:39:34.983Z,1012.17
2017-06-17T00:40:15.432Z,1012.17
2017-06-17T00:40:55.967Z,1012.14
2017-06-17T00:41:36.481Z,1012.16
2017-06-17T00:42:16.984Z,1012.2
2017-06-17T00:42:57.484Z,1012.17
2017-06-17T00:44:55.848Z,1012.19
2017-06-17T00:45:36.360Z,1012.19
2017-06-17T00:46:16.854Z,1012.2
2017-06-17T00:46:57.343Z,1012.2
2017-06-17T00:47:37.835Z,1012.18
2017-06-17T00:48:18.314Z,1012.21
2017-06-17T00:48:58.828Z,1012.19
2017-06-17T00:49:39.502Z,1012.22
2017-06-17T00:50:20.074Z,1012.22
2017-06-17T00:51:00.564Z,1012.21
2017-06-17T00:51:41.083Z,1012.19
2017-06-17T00:52:21.555Z,1012.28
2017-06-17T00:53:02.079Z,1012.25
2017-06-17T00:53:42.557Z,1012.26
2017-06-17T00:54:23.052Z,1012.29
2017-06-17T00:55:03.537Z,1012.31
2017-06-17T00:55:44.080Z,1012.31
2017-06-17T00:56:24.511Z,1012.29
2017-06-17T00:57:05.002Z,1012.3
2017-06-17T00:57:45.475Z,1012.31
2017-06-17T00:58:26.046Z,1012.34
2017-06-17T00:59:06.522Z,1012.32
2017-06-17T00:59:47.031Z,1012.35
2017-06-17T01:00:27.535Z,1012.35
2017-06-17T01:01:08.136Z,1012.34
2017-06-17T01:01:48.619Z,1012.35
2017-06-17T01:02:29.097Z,1012.39
2017-06-17T01:03:09.589Z,1012.37
2017-06-17T01:03:50.118Z,1012.35
2017-06-17T01:04:30.617Z,1012.35
2017-06-17T01:05:11.069Z,1012.42
2017-06-17T01:05:51.929Z,1012.38
2017-06-17T01:06:32.453Z,1012.43
2017-06-17T01:07:12.957Z,1012.42
2017-06-17T01:07:53.436Z,1012.4
2017-06-17T01:08:33.951Z,1012.4
2017-06-17T01:09:14.443Z,1012.41
2017-06-17T01:09:54.923Z,1012.38
2017-06-17T01:10:35.438Z,1012.4
2017-06-17T01:11:15.911Z,1012.36
2017-06-17T01:11:56.406Z,1012.4
2017-06-17T01:12:36.936Z,1012.37
2017-06-17T01:13:17.426Z,1012.39
2017-06-17T01:13:57.947Z,1012.36
2017-06-17T01:14:38.472Z,1012.39
2017-06-17T01:15:18.945Z,1012.39
2017-06-17T01:15:59.453Z,1012.39
2017-06-17T01:16:39.992Z,1012.41
2017-06-17T01:17:20.529Z,1012.46
2017-06-17T01:18:01.033Z,1012.43
2017-06-17T01:18:41.552Z,1012.45
2017-06-17T01:19:22.005Z,1012.44
2017-06-17T01:20:02.536Z,1012.42
2017-06-17T01:20:42.998Z,1012.44
2017-06-17T01:21:23.534Z,1012.43
2017-06-17T01:22:03.994Z,1012.41
2017-06-17T01:22:44.480Z,1012.4
2017-06-17T01:23:25.027Z,1012.39
2017-06-17T01:24:05.488Z,1012.38
2017-06-17T01:24:45.995Z,1012.35
2017-06-17T01:25:26.489Z,1012.35
2017-06-17T01:26:06.948Z,1012.34
2017-06-17T01:26:47.455Z,1012.37
2017-06-17T01:27:27.947Z,1012.38
2017-06-17T01:28:08.465Z,1012.38
2017-06-17T01:28:48.972Z,1012.32
2017-06-17T01:29:29.468Z,1012.39
2017-06-17T01:30:09.979Z,1012.41
2017-06-17T01:30:50.426Z,1012.41
2017-06-17T01:31:30.913Z,1012.37
2017-06-17T01:32:11.408Z,1012.4
2017-06-17T01:32:51.909Z,1012.4
2017-06-17T01:33:32.379Z,1012.4
2017-06-17T01:34:12.874Z,1012.38
2017-06-17T01:34:53.434Z,1012.41
2017-06-17T01:35:33.866Z,1012.39
2017-06-17T01:36:14.416Z,1012.38
2017-06-17T01:36:54.855Z,1012.39
2017-06-17T01:37:35.359Z,1012.38
2017-06-17T01:38:15.825Z,1012.41
2017-06-17T01:38:56.410Z,1012.36
2017-06-17T01:39:36.869Z,1012.38
2017-06-17T01:40:17.388Z,1012.36
2017-06-17T01:40:57.868Z,1012.34
2017-06-17T01:41:38.383Z,1012.39
2017-06-17T01:42:18.860Z,1012.39
2017-06-17T01:42:59.372Z,1012.4
2017-06-17T01:43:39.831Z,1012.33
2017-06-17T01:44:20.333Z,1012.33
2017-06-17T01:45:00.858Z,1012.32
2017-06-17T01:45:41.405Z,1012.28
2017-06-17T01:46:21.865Z,1012.32
2017-06-17T01:47:02.378Z,1012.31
2017-06-17T01:47:42.896Z,1012.29
2017-06-17T01:48:23.364Z,1012.3
2017-06-17T01:49:03.874Z,1012.33
2017-06-17T01:49:44.360Z,1012.3
2017-06-17T01:50:24.901Z,1012.28
2017-06-17T01:51:05.372Z,1012.28
2017-06-17T01:51:45.864Z,1012.28
2017-06-17T01:52:26.367Z,1012.3
2017-06-17T01:53:06.875Z,1012.26
2017-06-17T01:53:47.380Z,1012.34
2017-06-17T01:54:27.862Z,1012.31
2017-06-17T01:55:08.345Z,1012.33
2017-06-17T01:55:48.813Z,1012.28
2017-06-17T01:56:29.349Z,1012.33
2017-06-17T01:57:09.840Z,1012.29
2017-06-17T01:57:50.398Z,1012.3
2017-06-17T01:58:30.886Z,1012.32
2017-06-17T01:59:11.357Z,1012.3
2017-06-17T01:59:51.859Z,1012.32
2017-06-17T02:00:32.359Z,1012.26
2017-06-17T02:01:12.905Z,1012.35
2017-06-17T02:01:53.391Z,1012.29
2017-06-17T02:02:33.890Z,1012.25
2017-06-17T02:03:14.410Z,1012.28
2017-06-17T02:03:54.907Z,1012.26
2017-06-17T02:04:35.405Z,1012.26
2017-06-17T02:05:15.897Z,1012.24
2017-06-17T02:05:56.428Z,1012.3
2017-06-17T02:06:36.942Z,1012.26
2017-06-17T02:07:17.440Z,1012.27
2017-06-17T02:07:57.915Z,1012.25
2017-06-17T02:08:38.434Z,1012.26
2017-06-17T02:09:18.944Z,1012.26
2017-06-17T02:09:59.509Z,1012.23
2017-06-17T02:10:40.000Z,1012.27
2017-06-17T02:11:20.497Z,1012.21
2017-06-17T02:12:01.007Z,1012.23
2017-06-17T02:12:41.512Z,1012.23
2017-06-17T02:13:22.083Z,1012.24
2017-06-17T02:14:02.584Z,1012.24
2017-06-17T02:14:43.100Z,1012.19
2017-06-17T02:15:23.598Z,1012.18
2017-06-17T02:16:04.087Z,1012.17
2017-06-17T02:16:44.617Z,1012.23
2017-06-17T02:17:25.070Z,1012.23
2017-06-17T02:18:05.549Z,1012.22
2017-06-17T02:18:46.075Z,1012.25
2017-06-17T02:19:26.535Z,1012.28
2017-06-17T02:20:07.035Z,1012.24
2017-06-17T02:20:47.556Z,1012.2
2017-06-17T02:21:28.050Z,1012.26
2017-06-17T02:22:08.565Z,1012.25
2017-06-17T02:22:49.089Z,1012.28
2017-06-17T02:23:29.591Z,1012.31
2017-06-17T02:24:10.102Z,1012.3
2017-06-17T02:24:50.634Z,1012.3
2017-06-17T02:25:31.289Z,1012.27
2017-06-17T02:26:11.742Z,1012.3
2017-06-17T02:26:52.254Z,1012.31
2017-06-17T02:27:32.796Z,1012.32
2017-06-17T02:28:13.247Z,1012.31
2017-06-17T02:28:53.746Z,1012.31
2017-06-17T02:29:34.263Z,1012.31
2017-06-17T02:30:14.743Z,1012.28
2017-06-17T02:30:55.209Z,1012.28
2017-06-17T02:31:35.742Z,1012.3
2017-06-17T02:32:16.215Z,1012.28
2017-06-17T02:32:56.717Z,1012.3
2017-06-17T02:33:37.233Z,1012.28
2017-06-17T02:34:17.772Z,1012.33
2017-06-17T02:34:58.290Z,1012.35
2017-06-17T02:35:38.790Z,1012.36
2017-06-17T02:36:19.307Z,1012.4
2017-06-17T02:36:59.791Z,1012.38
2017-06-17T02:37:40.267Z,1012.41
2017-06-17T02:38:20.818Z,1012.39
2017-06-17T02:39:01.293Z,1012.41
2017-06-17T02:39:41.817Z,1012.39
2017-06-17T02:40:22.301Z,1012.36
2017-06-17T02:41:02.825Z,1012.4
2017-06-17T02:41:43.295Z,1012.38
2017-06-17T02:42:23.783Z,1012.36
2017-06-17T02:43:04.294Z,1012.4
2017-06-17T02:43:44.824Z,1012.37
2017-06-17T02:44:25.311Z,1012.35
2017-06-17T02:45:05.872Z,1012.37
2017-06-17T02:45:46.358Z,1012.37
2017-06-17T02:46:26.871Z,1012.41
2017-06-17T02:47:07.295Z,1012.36
2017-06-17T02:47:47.806Z,1012.37
2017-06-17T02:48:28.286Z,1012.4
2017-06-17T02:49:08.800Z,1012.37
2017-06-17T02:49:49.306Z,1012.38
2017-06-17T02:50:29.755Z,1012.39
2017-06-17T02:51:10.276Z,1012.42
2017-06-17T02:51:50.769Z,1012.4
2017-06-17T02:52:31.283Z,1012.43
2017-06-17T02:53:11.810Z,1012.39
2017-06-17T02:53:52.284Z,1012.42
2017-06-17T02:54:32.744Z,1012.46
2017-06-17T02:55:13.292Z,1012.44
2017-06-17T02:55:53.803Z,1012.5
2017-06-17T02:56:34.279Z,1012.48
2017-06-17T02:57:14.765Z,1012.48
2017-06-17T02:57:55.245Z,1012.53
2017-06-17T02:58:35.777Z,1012.52
2017-06-17T02:59:16.254Z,1012.57
2017-06-17T02:59:56.719Z,1012.55
2017-06-17T03:00:37.236Z,1012.54
2017-06-17T03:01:17.745Z,1012.58
2017-06-17T03:01:58.273Z,1012.58
2017-06-17T03:02:38.761Z,1012.6
2017-06-17T03:03:19.305Z,1012.6
2017-06-17T03:03:59.812Z,1012.63
2017-06-17T03:04:40.236Z,1012.63
2017-06-17T03:05:20.776Z,1012.62
2017-06-17T03:06:01.269Z,1012.66
2017-06-17T03:06:41.769Z,1012.63
2017-06-17T03:07:22.265Z,1012.64
2017-06-17T03:08:02.777Z,1012.65
2017-06-17T03:08:43.202Z,1012.68
2017-06-17T03:09:23.681Z,1012.67
2017-06-17T03:10:04.177Z,1012.66
2017-06-17T03:10:44.729Z,1012.68
2017-06-17T03:11:25.180Z,1012.67
2017-06-17T03:12:05.691Z,1012.68
2017-06-17T03:12:46.209Z,1012.71
2017-06-17T03:13:26.696Z,1012.72
2017-06-17T03:14:07.230Z,1012.73
2017-06-17T03:14:47.709Z,1012.73
2017-06-17T03:15:28.222Z,1012.74
2017-06-17T03:16:08.721Z,1012.76
2017-06-17T03:16:49.238Z,1012.79
2017-06-17T03:17:29.758Z,1012.8
2017-06-17T03:18:10.326Z,1012.78
2017-06-17T03:18:50.776Z,1012.79
2017-06-17T03:19:31.261Z,1012.81
2017-06-17T03:20:11.764Z,1012.84
2017-06-17T03:20:52.251Z,1012.83
2017-06-17T03:21:32.754Z,1012.82
2017-06-17T03:22:13.251Z,1012.83
2017-06-17T03:22:53.709Z,1012.92
2017-06-17T03:23:34.217Z,1012.85
2017-06-17T03:24:14.766Z,1012.83
2017-06-17T03:24:55.214Z,1012.84
2017-06-17T03:25:35.767Z,1012.89
2017-06-17T03:26:16.330Z,1012.88
2017-06-17T03:26:56.865Z,1012.95
2017-06-17T03:27:37.351Z,1012.97
2017-06-17T03:28:17.951Z,1012.94
2017-06-17T03:28:58.413Z,1012.93
2017-06-17T03:29:38.899Z,1012.95
2017-06-17T03:30:19.378Z,1012.87
2017-06-17T03:30:59.890Z,1012.88
2017-06-17T03:31:40.365Z,1012.91
2017-06-17T03:32:20.880Z,1012.93
2017-06-17T03:33:01.356Z,1012.94
2017-06-17T03:33:41.899Z,1012.92
2017-06-17T03:34:22.396Z,1012.95
2017-06-17T03:35:02.925Z,1012.94
2017-06-17T03:35:43.389Z,1012.93
2017-06-17T03:36:23.898Z,1012.94
2017-06-17T03:37:04.385Z,1012.94
2017-06-17T03:37:44.867Z,1012.96
2017-06-17T03:38:25.349Z,1012.95
2017-06-17T03:39:05.811Z,1012.91
2017-06-17T03:39:46.301Z,1012.99
2017-06-17T03:40:26.796Z,1012.95
2017-06-17T03:41:07.333Z,1012.98
2017-06-17T03:41:47.829Z,1012.97
2017-06-17T03:42:28.327Z,1012.99
2017-06-17T03:43:08.874Z,1012.99
2017-06-17T03:43:49.349Z,1013.01
2017-06-17T03:44:29.886Z,1013.05
2017-06-17T03:45:10.407Z,1013.04
2017-06-17T03:45:50.839Z,1012.97
2017-06-17T03:46:31.467Z,1013.01
2017-06-17T03:47:11.902Z,1013.04
2017-06-17T03:47:52.368Z,1013.05
2017-06-17T03:48:32.852Z,1012.99
2017-06-17T03:49:13.364Z,1013
2017-06-17T03:49:53.834Z,1012.98
2017-06-17T03:50:34.347Z,1012.95
2017-06-17T03:51:14.863Z,1013
2017-06-17T03:51:55.365Z,1012.95
2017-06-17T03:52:35.844Z,1012.98
2017-06-17T03:53:16.359Z,1013
2017-06-17T03:53:56.885Z,1013
2017-06-17T03:54:37.446Z,1013.05
2017-06-17T03:55:17.893Z,1013.07
2017-06-17T03:55:58.364Z,1012.99
2017-06-17T03:56:38.864Z,1013.02
2017-06-17T03:57:19.382Z,1013.04
2017-06-17T03:57:59.895Z,1013.07
2017-06-17T03:58:40.387Z,1013.09
2017-06-17T03:59:20.909Z,1013.08
2017-06-17T04:00:01.383Z,1013.08
2017-06-17T04:00:41.880Z,1013.07
2017-06-17T04:01:22.391Z,1013.11
2017-06-17T04:02:02.945Z,1013.11
2017-06-17T04:02:43.406Z,1013.1
2017-06-17T04:03:23.930Z,1013.11
2017-06-17T04:04:04.424Z,1013.11
2017-06-17T04:04:44.862Z,1013.12
2017-06-17T04:05:25.369Z,1013.12
2017-06-17T04:06:05.873Z,1013.15
2017-06-17T04:06:46.366Z,1013.16
2017-06-17T04:07:26.835Z,1013.16
2017-06-17T04:08:07.347Z,1013.17
2017-06-17T04:08:47.908Z,1013.16
2017-06-17T04:09:28.625Z,1013.1
2017-06-17T04:10:09.152Z,1013.06
2017-06-17T04:10:49.722Z,1013.03
2017-06-17T04:11:30.190Z,1013.07
2017-06-17T04:12:10.690Z,1013.06
2017-06-17T04:12:51.165Z,1013.08
2017-06-17T04:13:31.636Z,1013.03
2017-06-17T04:14:12.119Z,1013.05
2017-06-17T04:14:52.630Z,1013.11
2017-06-17T04:15:33.086Z,1013.09
2017-06-17T04:16:13.567Z,1013.14
2017-06-17T04:16:54.182Z,1013.08
2017-06-17T04:17:34.752Z,1013.12
2017-06-17T04:18:15.234Z,1013.12
2017-06-17T04:18:55.649Z,1013.13
2017-06-17T04:19:36.204Z,1013.14
2017-06-17T04:20:16.713Z,1013.18
2017-06-17T04:20:57.169Z,1013.17
2017-06-17T04:21:37.704Z,1013.21
2017-06-17T04:22:18.184Z,1013.25
2017-06-17T04:22:58.719Z,1013.23
2017-06-17T04:23:39.235Z,1013.18
2017-06-17T04:24:19.766Z,1013.17
2017-06-17T04:25:00.256Z,1013.22
2017-06-17T04:25:40.709Z,1013.21
2017-06-17T04:26:21.902Z,1013.19
2017-06-17T04:27:01.719Z,1013.19
2017-06-17T04:27:42.274Z,1013.17
2017-06-17T04:28:22.712Z,1013.2
2017-06-17T04:29:03.261Z,1013.22
2017-06-17T04:29:43.917Z,1013.22
2017-06-17T04:30:24.463Z,1013.21
2017-06-17T04:31:04.978Z,1013.21
2017-06-17T04:31:45.414Z,1013.25
2017-06-17T04:32:26.009Z,1013.24
2017-06-17T04:33:06.427Z,1013.24
2017-06-17T04:33:46.903Z,1013.26
2017-06-17T04:34:27.414Z,1013.29
2017-06-17T04:35:07.948Z,1013.29
2017-06-17T04:35:48.385Z,1013.26
2017-06-17T04:36:28.909Z,1013.26
2017-06-17T04:37:09.417Z,1013.24
2017-06-17T04:37:49.897Z,1013.27
2017-06-17T04:38:30.363Z,1013.27
2017-06-17T04:39:10.870Z,1013.29
2017-06-17T04:39:51.368Z,1013.28
2017-06-17T04:40:31.857Z,1013.26
2017-06-17T04:41:12.422Z,1013.34
2017-06-17T04:41:53.021Z,1013.43
2017-06-17T04:42:33.521Z,1013.54
2017-06-17T04:43:14.048Z,1013.6
2017-06-17T04:43:54.510Z,1013.58
2017-06-17T04:44:34.984Z,1013.55
2017-06-17T04:45:15.472Z,1013.51
2017-06-17T04:45:55.998Z,1013.44
2017-06-17T04:46:36.463Z,1013.42
2017-06-17T04:47:17.021Z,1013.36
2017-06-17T04:47:57.494Z,1013.34
2017-06-17T04:48:37.985Z,1013.33
2017-06-17T04:49:18.502Z,1013.36
2017-06-17T04:49:58.980Z,1013.33
2017-06-17T04:50:39.478Z,1013.33
2017-06-17T04:51:19.980Z,1013.34
2017-06-17T04:52:00.520Z,1013.36
2017-06-17T04:52:40.956Z,1013.39
2017-06-17T04:53:21.519Z,1013.35
2017-06-17T04:54:02.014Z,1013.36
2017-06-17T04:54:42.523Z,1013.35
2017-06-17T04:55:23.023Z,1013.37
2017-06-17T04:56:03.570Z,1013.34
2017-06-17T04:56:44.057Z,1013.42
2017-06-17T04:57:24.766Z,1013.37
2017-06-17T04:58:05.192Z,1013.39
2017-06-17T04:58:45.674Z,1013.35
2017-06-17T04:59:26.182Z,1013.35
2017-06-17T05:00:06.732Z,1013.39
2017-06-17T05:00:47.204Z,1013.37
2017-06-17T05:01:27.788Z,1013.35
2017-06-17T05:02:08.258Z,1013.35
2017-06-17T05:02:48.754Z,1013.4
2017-06-17T05:03:29.260Z,1013.36
2017-06-17T05:04:09.768Z,1013.36
2017-06-17T05:04:50.233Z,1013.35
2017-06-17T05:05:30.717Z,1013.39
2017-06-17T05:06:11.236Z,1013.37
2017-06-17T05:06:51.732Z,1013.39
2017-06-17T05:07:32.205Z,1013.45
2017-06-17T05:08:12.705Z,1013.41
2017-06-17T05:08:53.239Z,1013.41
2017-06-17T05:09:33.781Z,1013.42
2017-06-17T05:10:14.466Z,1013.41
2017-06-17T05:10:55.017Z,1013.47
2017-06-17T05:11:35.499Z,1013.47
2017-06-17T05:12:16.025Z,1013.39
2017-06-17T05:12:56.554Z,1013.43
2017-06-17T05:13:37.019Z,1013.41
2017-06-17T05:14:17.490Z,1013.41
2017-06-17T05:14:58.009Z,1013.42
2017-06-17T05:15:38.521Z,1013.45
2017-06-17T05:16:19.170Z,1013.45
2017-06-17T05:16:59.621Z,1013.52
2017-06-17T05:17:40.155Z,1013.51
2017-06-17T05:18:20.620Z,1013.51
2017-06-17T05:19:01.119Z,1013.49
2017-06-17T05:19:41.612Z,1013.42
2017-06-17T05:20:22.133Z,1013.44
2017-06-17T05:21:02.612Z,1013.46
2017-06-17T05:21:43.168Z,1013.47
2017-06-17T05:22:24.539Z,1013.5
2017-06-17T05:23:05.036Z,1013.49
2017-06-17T05:23:45.496Z,1013.53
2017-06-17T05:24:26.015Z,1013.5
2017-06-17T05:25:06.622Z,1013.49
2017-06-17T05:25:47.041Z,1013.57
2017-06-17T05:26:27.945Z,1013.61
2017-06-17T05:27:08.484Z,1013.63
2017-06-17T05:27:48.939Z,1013.62
2017-06-17T05:28:29.461Z,1013.53
2017-06-17T05:29:09.936Z,1013.49
2017-06-17T05:29:50.444Z,1013.45
2017-06-17T05:30:30.933Z,1013.45
2017-06-17T05:31:11.440Z,1013.41
2017-06-17T05:31:51.935Z,1013.48
2017-06-17T05:32:32.455Z,1013.47
2017-06-17T05:33:12.917Z,1013.44
2017-06-17T05:33:53.442Z,1013.46
2017-06-17T05:34:33.933Z,1013.47
2017-06-17T05:35:14.393Z,1013.42
2017-06-17T05:35:54.931Z,1013.42
2017-06-17T05:36:35.397Z,1013.44
2017-06-17T05:37:15.947Z,1013.44
2017-06-17T05:37:56.433Z,1013.42
2017-06-17T05:38:37.132Z,1013.44
2017-06-17T05:39:17.602Z,1013.42
2017-06-17T05:39:58.094Z,1013.47
2017-06-17T05:40:38.554Z,1013.41
2017-06-17T05:41:19.128Z,1013.45
2017-06-17T05:41:59.605Z,1013.47
2017-06-17T05:42:40.070Z,1013.5
2017-06-17T05:43:20.751Z,1013.48
2017-06-17T05:44:01.247Z,1013.5
2017-06-17T05:44:41.821Z,1013.48
2017-06-17T05:45:22.288Z,1013.46
2017-06-17T05:46:02.807Z,1013.43
2017-06-17T05:46:43.321Z,1013.43
2017-06-17T05:47:23.799Z,1013.4
2017-06-17T05:48:04.320Z,1013.39
2017-06-17T05:48:44.805Z,1013.37
2017-06-17T05:49:25.287Z,1013.37
2017-06-17T05:50:05.785Z,1013.38
2017-06-17T05:50:46.267Z,1013.35
2017-06-17T05:51:27.215Z,1013.4
2017-06-17T05:52:07.715Z,1013.4
2017-06-17T05:52:48.403Z,1013.44
2017-06-17T05:53:28.960Z,1013.5
2017-06-17T05:54:09.419Z,1013.52
2017-06-17T05:54:49.937Z,1013.43
2017-06-17T05:55:30.462Z,1013.49
2017-06-17T05:56:10.900Z,1013.48
2017-06-17T05:56:51.402Z,1013.48
2017-06-17T05:57:31.933Z,1013.52
2017-06-17T05:58:12.447Z,1013.51
2017-06-17T05:58:52.907Z,1013.53
2017-06-17T05:59:33.484Z,1013.53
2017-06-17T06:00:13.998Z,1013.47
2017-06-17T06:00:54.498Z,1013.48
2017-06-17T06:01:34.985Z,1013.46
2017-06-17T06:02:15.480Z,1013.46
2017-06-17T06:02:56.101Z,1013.44
2017-06-17T06:03:36.757Z,1013.39
2017-06-17T06:04:17.534Z,1013.41
2017-06-17T06:04:58.089Z,1013.35
2017-06-17T06:05:38.598Z,1013.41
2017-06-17T06:06:19.148Z,1013.45
2017-06-17T06:06:59.609Z,1013.46
2017-06-17T06:07:42.047Z,1013.44
2017-06-17T06:08:21.897Z,1013.45
2017-06-17T06:09:02.384Z,1013.42
2017-06-17T06:09:42.849Z,1013.41
2017-06-17T06:10:23.379Z,1013.42
2017-06-17T06:11:03.824Z,1013.42
2017-06-17T06:11:44.268Z,1013.43
2017-06-17T06:12:24.814Z,1013.42
2017-06-17T06:13:05.274Z,1013.42
2017-06-17T06:13:45.792Z,1013.42
2017-06-17T06:14:26.304Z,1013.48
2017-06-17T06:15:06.830Z,1013.48
2017-06-17T06:15:47.320Z,1013.44
2017-06-17T06:16:27.820Z,1013.41
2017-06-17T06:17:08.310Z,1013.44
2017-06-17T06:17:50.641Z,1013.41
2017-06-17T06:18:31.142Z,1013.43
2017-06-17T06:19:11.632Z,1013.4
2017-06-17T06:19:52.150Z,1013.43
2017-06-17T06:20:32.680Z,1013.45
2017-06-17T06:21:13.130Z,1013.44
2017-06-17T06:21:53.673Z,1013.42
2017-06-17T06:22:34.193Z,1013.48
2017-06-17T06:23:14.674Z,1013.51
2017-06-17T06:23:55.264Z,1013.49
2017-06-17T06:24:35.736Z,1013.5
2017-06-17T06:25:16.260Z,1013.52
2017-06-17T06:25:56.768Z,1013.48
2017-06-17T06:26:37.234Z,1013.44
2017-06-17T06:27:17.868Z,1013.51
2017-06-17T06:27:58.422Z,1013.46
2017-06-17T06:28:38.960Z,1013.45
2017-06-17T06:29:19.599Z,1013.48
2017-06-17T06:30:00.069Z,1013.47
2017-06-17T06:30:40.614Z,1013.43
2017-06-17T06:31:21.108Z,1013.43
2017-06-17T06:32:01.731Z,1013.51
2017-06-17T06:32:42.071Z,1013.5
2017-06-17T06:33:22.739Z,1013.47
2017-06-17T06:34:03.295Z,1013.42
2017-06-17T06:34:43.841Z,1013.42
2017-06-17T06:35:24.613Z,1013.44
2017-06-17T06:36:05.143Z,1013.42
2017-06-17T06:36:45.641Z,1013.41
2017-06-17T06:37:26.173Z,1013.4
2017-06-17T06:38:06.644Z,1013.42
2017-06-17T06:38:47.413Z,1013.4
2017-06-17T06:39:27.602Z,1013.4
2017-06-17T06:40:08.115Z,1013.38
2017-06-17T06:40:48.627Z,1013.43
2017-06-17T06:41:29.226Z,1013.41
2017-06-17T06:42:09.775Z,1013.35
2017-06-17T06:42:50.261Z,1013.39
2017-06-17T06:43:30.819Z,1013.39
2017-06-17T06:44:12.737Z,1013.36
2017-06-17T06:44:53.134Z,1013.35
2017-06-17T06:45:33.634Z,1013.38
2017-06-17T06:46:14.347Z,1013.37
2017-06-17T06:46:54.883Z,1013.44
2017-06-17T06:47:35.404Z,1013.47
2017-06-17T06:48:15.849Z,1013.42
2017-06-17T06:48:56.369Z,1013.47
2017-06-17T06:49:36.857Z,1013.41
2017-06-17T06:50:17.354Z,1013.42
2017-06-17T06:50:57.852Z,1013.42
2017-06-17T06:51:38.330Z,1013.4
2017-06-17T06:52:18.852Z,1013.45
2017-06-17T06:52:59.352Z,1013.37
2017-06-17T06:53:39.818Z,1013.4
2017-06-17T06:54:20.881Z,1013.41
2017-06-17T06:55:01.431Z,1013.4
2017-06-17T06:55:42.248Z,1013.41
2017-06-17T06:56:22.769Z,1013.43
2017-06-17T06:57:03.283Z,1013.44
2017-06-17T06:57:43.869Z,1013.46
2017-06-17T06:58:24.346Z,1013.42
2017-06-17T06:59:04.835Z,1013.44
2017-06-17T06:59:45.336Z,1013.46
2017-06-17T07:00:25.939Z,1013.43
2017-06-17T07:01:06.430Z,1013.47
2017-06-17T07:01:46.932Z,1013.46
2017-06-17T07:02:27.461Z,1013.48
2017-06-17T07:03:08.377Z,1013.51
2017-06-17T07:03:48.997Z,1013.51
2017-06-17T07:04:29.497Z,1013.53
2017-06-17T07:05:10.473Z,1013.52
2017-06-17T07:05:51.185Z,1013.48
2017-06-17T07:07:44.285Z,1013.48
2017-06-17T07:08:24.787Z,1013.47
2017-06-17T07:09:05.405Z,1013.47
2017-06-17T07:09:45.955Z,1013.44
2017-06-17T07:10:26.776Z,1013.46
2017-06-17T07:11:07.342Z,1013.49
2017-06-17T07:11:47.723Z,1013.49
2017-06-17T07:12:28.321Z,1013.47
2017-06-17T07:13:09.769Z,1013.52
2017-06-17T07:13:50.083Z,1013.52
2017-06-17T07:14:31.009Z,1013.54
2017-06-17T07:15:11.385Z,1013.58
2017-06-17T07:15:51.891Z,1013.54
2017-06-17T07:16:32.373Z,1013.52
2017-06-17T07:17:12.910Z,1013.55
2017-06-17T07:17:53.464Z,1013.57
2017-06-17T07:18:33.959Z,1013.57
2017-06-17T07:19:14.488Z,1013.58
2017-06-17T07:19:55.046Z,1013.55
2017-06-17T07:20:35.533Z,1013.61
2017-06-17T07:21:16.246Z,1013.62
2017-06-17T07:21:56.855Z,1013.62
2017-06-17T07:22:37.468Z,1013.58
2017-06-17T07:23:18.054Z,1013.59
2017-06-17T07:23:58.563Z,1013.61
2017-06-17T07:24:39.000Z,1013.61
2017-06-17T07:25:19.500Z,1013.6
2017-06-17T07:26:00.878Z,1013.61
2017-06-17T07:26:41.536Z,1013.57
2017-06-17T07:27:22.504Z,1013.55
2017-06-17T07:28:03.392Z,1013.6
2017-06-17T07:28:43.921Z,1013.65
2017-06-17T07:29:24.276Z,1013.62
2017-06-17T07:30:04.856Z,1013.62
2017-06-17T07:30:45.572Z,1013.6
2017-06-17T07:31:26.044Z,1013.59
2017-06-17T07:32:06.874Z,1013.59
2017-06-17T07:32:47.528Z,1013.61
2017-06-17T07:33:28.264Z,1013.58
2017-06-17T07:34:08.804Z,1013.63
2017-06-17T07:34:49.433Z,1013.63
2017-06-17T07:35:29.996Z,1013.62
2017-06-17T07:36:10.495Z,1013.62
2017-06-17T07:36:51.030Z,1013.61
2017-06-17T07:37:31.482Z,1013.58
2017-06-17T07:38:12.185Z,1013.6
2017-06-17T07:38:52.704Z,1013.6
2017-06-17T07:39:33.339Z,1013.57
2017-06-17T07:40:13.860Z,1013.62
2017-06-17T07:40:54.347Z,1013.56
2017-06-17T07:41:34.783Z,1013.58
2017-06-17T07:42:15.438Z,1013.61
2017-06-17T07:42:56.012Z,1013.64
2017-06-17T07:43:36.600Z,1013.53
2017-06-17T07:44:17.089Z,1013.58
2017-06-17T07:44:58.132Z,1013.63
2017-06-17T07:45:38.856Z,1013.65
2017-06-17T07:46:19.691Z,1013.68
2017-06-17T07:47:00.229Z,1013.65
2017-06-17T07:47:40.784Z,1013.66
2017-06-17T07:48:21.249Z,1013.66
2017-06-17T07:49:01.788Z,1013.66
2017-06-17T07:49:42.455Z,1013.69
2017-06-17T07:50:23.019Z,1013.7
2017-06-17T07:51:03.639Z,1013.83
2017-06-17T07:51:44.191Z,1013.73
2017-06-17T07:52:24.707Z,1013.75
2017-06-17T07:53:05.242Z,1013.68
2017-06-17T07:53:45.821Z,1013.77
2017-06-17T07:54:26.374Z,1013.75
2017-06-17T07:55:06.821Z,1013.76
2017-06-17T07:55:47.334Z,1013.78
2017-06-17T07:56:28.140Z,1013.79
2017-06-17T07:57:09.093Z,1013.77
2017-06-17T07:57:49.930Z,1013.8
2017-06-17T07:58:30.743Z,1013.82
2017-06-17T07:59:11.203Z,1013.79
2017-06-17T07:59:51.813Z,1013.77
2017-06-17T08:00:33.261Z,1013.71
2017-06-17T08:01:13.572Z,1013.69
2017-06-17T08:01:54.236Z,1013.66
2017-06-17T08:02:34.774Z,1013.69
2017-06-17T08:03:15.234Z,1013.69
2017-06-17T08:03:55.789Z,1013.65
2017-06-17T08:04:36.365Z,1013.68
2017-06-17T08:05:16.919Z,1013.65
2017-06-17T08:05:57.346Z,1013.66
2017-06-17T08:06:37.901Z,1013.61
2017-06-17T08:07:18.363Z,1013.67
2017-06-17T08:07:59.017Z,1013.68
2017-06-17T08:08:39.582Z,1013.69
2017-06-17T08:09:20.021Z,1013.69
2017-06-17T08:10:00.776Z,1013.67
2017-06-17T08:10:41.335Z,1013.75
2017-06-17T08:11:22.106Z,1013.69
2017-06-17T08:12:05.365Z,1013.65
2017-06-17T08:14:04.650Z,1013.65
2017-06-17T08:14:51.642Z,1013.58
2017-06-17T08:17:50.531Z,1013.57
2017-06-17T08:18:31.070Z,1013.56